Portada
METAR-TAF:

METAR-TAF

Aeroports :

Cluj-Napoca, Romania

latitud: 46-47N, longitud: 023-34E, altitud: 315 m

Observació

L'informe es va fer fa 21 minuts, a les 04:30 UTC
Vent calma
Temperatura 8°C
Humitat 100%
Pressió 1006 hPa
Visibilitat: 0350 m
boira

METAR: LRCL 040430Z 00000KT 0350 R25/0450U FG VV002 08/08 Q1006

Hora: 07:51 (04:51 UTC)

Pronòstic

L'informe es va fer fa 2 hores i 51 minuts, a les 02:00 UTC
Pronòstic vàlid del 04 a les 03 UTC al 04 a les 12 UTC
Vent 4 kt amb direcció variable
Visibilitat: 5000 m
boirina
Probabilitat 30% :
Temporalment
l' 04 a les 03 UTC al 04 a les 05 UTC
Visibilitat: 1500 m
Cel ennuvolat a una alçada de 500 ft
boirina
Evolucionant progressivament
l' 04 a les 05 UTC al 04 a les 07 UTC
Visibilitat 10 km o més
sense núvols per sota de 1500 mi sense presència de cumulonimbus.

TAF: LRCL 040200Z 0403/0412 VRB04KT 5000 BR NSC PROB30 TEMPO 0403/0405 1500 BR BKN005 BECMG 0405/0407 CAVOK

Observacions i pronòstics meteorològics de més de 4000 aeroports (METAR i TAF).

Les estacions disponibles són els punts grocs i vermells al mapa.

Posi el ratolí al punt desitjat per veure el nom de l'estació.

Feu clic per veure les observacions i els pronòstics meteorològics.

Per canviar el mapa: feu clic els botons verds amb una creu de color negre per apropar; al botó verd amb un guió per allunyar la imatge; o en les fletxes verdes per a mapes adjacents.


METAR-TAF: